sensor_id;sensor_type;location;lat;lon;timestamp;pressure;altitude;pressure_sealevel;temperature;humidity
35443;BME280;21561;55.654;37.592;2022-10-31T00:00:01;97666.44;;;-0.79;77.93
35443;BME280;21561;55.654;37.592;2022-10-31T00:02:29;97674.94;;;-0.79;77.95
35443;BME280;21561;55.654;37.592;2022-10-31T00:04:56;97672.34;;;-0.85;77.95
35443;BME280;21561;55.654;37.592;2022-10-31T00:07:23;97679.19;;;-0.78;77.67
35443;BME280;21561;55.654;37.592;2022-10-31T00:09:49;97681.75;;;-0.76;77.75
35443;BME280;21561;55.654;37.592;2022-10-31T00:12:16;97668.13;;;-0.81;77.84
35443;BME280;21561;55.654;37.592;2022-10-31T00:14:42;97668.19;;;-0.75;77.92
35443;BME280;21561;55.654;37.592;2022-10-31T00:17:09;97638.47;;;-0.74;78.01
35443;BME280;21561;55.654;37.592;2022-10-31T00:19:35;97664.78;;;-0.74;77.71
35443;BME280;21561;55.654;37.592;2022-10-31T00:22:02;97658.81;;;-0.81;77.20
35443;BME280;21561;55.654;37.592;2022-10-31T00:24:28;97679.19;;;-0.81;76.94
35443;BME280;21561;55.654;37.592;2022-10-31T00:26:55;97646.06;;;-0.79;76.64
35443;BME280;21561;55.654;37.592;2022-10-31T00:29:22;97647.81;;;-0.75;76.81
35443;BME280;21561;55.654;37.592;2022-10-31T00:31:51;97656.25;;;-0.78;76.95
35443;BME280;21561;55.654;37.592;2022-10-31T00:34:19;97656.28;;;-0.76;77.54
35443;BME280;21561;55.654;37.592;2022-10-31T00:36:45;97646.94;;;-0.74;77.40
35443;BME280;21561;55.654;37.592;2022-10-31T00:39:12;97625.78;;;-0.70;77.89
35443;BME280;21561;55.654;37.592;2022-10-31T00:41:38;97624.00;;;-0.75;77.26
35443;BME280;21561;55.654;37.592;2022-10-31T00:44:05;97630.84;;;-0.73;77.15
35443;BME280;21561;55.654;37.592;2022-10-31T00:46:31;97652.91;;;-0.75;77.56
35443;BME280;21561;55.654;37.592;2022-10-31T00:48:58;97630.84;;;-0.73;77.30
35443;BME280;21561;55.654;37.592;2022-10-31T00:51:25;97642.72;;;-0.73;77.19
35443;BME280;21561;55.654;37.592;2022-10-31T00:53:51;97632.53;;;-0.72;77.00
35443;BME280;21561;55.654;37.592;2022-10-31T00:56:18;97646.13;;;-0.73;76.87
35443;BME280;21561;55.654;37.592;2022-10-31T00:58:44;97641.84;;;-0.74;76.77
35443;BME280;21561;55.654;37.592;2022-10-31T01:01:11;97623.19;;;-0.74;77.07
35443;BME280;21561;55.654;37.592;2022-10-31T01:03:38;97640.19;;;-0.67;77.14
35443;BME280;21561;55.654;37.592;2022-10-31T01:06:09;97649.53;;;-0.71;76.29
35443;BME280;21561;55.654;37.592;2022-10-31T01:08:36;97646.13;;;-0.73;75.97
35443;BME280;21561;55.654;37.592;2022-10-31T01:11:11;97647.81;;;-0.75;76.68
35443;BME280;21561;55.654;37.592;2022-10-31T01:13:37;97629.13;;;-0.74;76.86
35443;BME280;21561;55.654;37.592;2022-10-31T01:16:04;97631.69;;;-0.71;77.41
35443;BME280;21561;55.654;37.592;2022-10-31T01:18:31;97620.66;;;-0.73;77.02
35443;BME280;21561;55.654;37.592;2022-10-31T01:20:59;97641.84;;;-0.74;77.71
35443;BME280;21561;55.654;37.592;2022-10-31T01:23:26;97634.22;;;-0.72;77.48
35443;BME280;21561;55.654;37.592;2022-10-31T01:26:01;97641.84;;;-0.74;77.88
35443;BME280;21561;55.654;37.592;2022-10-31T01:28:27;97646.97;;;-0.72;77.97
35443;BME280;21561;55.654;37.592;2022-10-31T01:30:54;97640.97;;;-0.79;78.39
35443;BME280;21561;55.654;37.592;2022-10-31T01:33:21;97640.97;;;-0.82;78.78
35443;BME280;21561;55.654;37.592;2022-10-31T01:35:47;97651.19;;;-0.81;79.22
35443;BME280;21561;55.654;37.592;2022-10-31T01:38:14;97640.06;;;-0.89;79.78
35443;BME280;21561;55.654;37.592;2022-10-31T01:40:41;97621.41;;;-0.89;80.26
35443;BME280;21561;55.654;37.592;2022-10-31T01:43:11;97632.41;;;-0.93;81.09
35443;BME280;21561;55.654;37.592;2022-10-31T01:45:38;97635.81;;;-0.94;81.80
35443;BME280;21561;55.654;37.592;2022-10-31T01:48:04;97649.38;;;-0.99;82.88
35443;BME280;21561;55.654;37.592;2022-10-31T01:50:32;97653.56;;;-1.04;83.90
35443;BME280;21561;55.654;37.592;2022-10-31T01:53:01;97635.69;;;-1.10;85.48
35443;BME280;21561;55.654;37.592;2022-10-31T01:55:30;97635.69;;;-1.13;86.52
35443;BME280;21561;55.654;37.592;2022-10-31T01:57:59;97657.75;;;-1.12;86.81
35443;BME280;21561;55.654;37.592;2022-10-31T02:00:29;97655.13;;;-1.21;88.19
35443;BME280;21561;55.654;37.592;2022-10-31T02:02:56;97681.34;;;-1.31;89.09
35443;BME280;21561;55.654;37.592;2022-10-31T02:05:24;97645.78;;;-1.25;88.22
35443;BME280;21561;55.654;37.592;2022-10-31T02:07:54;97647.47;;;-1.27;89.10
35443;BME280;21561;55.654;37.592;2022-10-31T02:10:22;97642.28;;;-1.40;92.03
35443;BME280;21561;55.654;37.592;2022-10-31T02:12:50;97666.00;;;-1.41;92.88
35443;BME280;21561;55.654;37.592;2022-10-31T02:15:17;97653.16;;;-1.55;94.75
35443;BME280;21561;55.654;37.592;2022-10-31T02:17:44;97662.47;;;-1.55;94.62
35443;BME280;21561;55.654;37.592;2022-10-31T02:20:18;97673.44;;;-1.62;94.86
35443;BME280;21561;55.654;37.592;2022-10-31T02:31:01;97642.00;;;-1.70;98.97
35443;BME280;21561;55.654;37.592;2022-10-31T02:33:41;97647.84;;;-1.76;100.00
35443;BME280;21561;55.654;37.592;2022-10-31T02:36:25;97645.28;;;-1.82;100.00
35443;BME280;21561;55.654;37.592;2022-10-31T02:39:40;97642.69;;;-1.85;100.00
35443;BME280;21561;55.654;37.592;2022-10-31T02:46:44;97642.66;;;-1.87;100.00
35443;BME280;21561;55.654;37.592;2022-10-31T02:49:18;97652.06;;;-1.83;100.00
35443;BME280;21561;55.654;37.592;2022-10-31T02:51:48;97641.84;;;-1.86;100.00
35443;BME280;21561;55.654;37.592;2022-10-31T02:54:19;97635.03;;;-1.90;100.00
35443;BME280;21561;55.654;37.592;2022-10-31T02:56:46;97650.28;;;-1.87;100.00
35443;BME280;21561;55.654;37.592;2022-10-31T02:59:13;97631.63;;;-1.89;100.00
35443;BME280;21561;55.654;37.592;2022-10-31T03:12:11;97666.31;;;-1.94;100.00
35443;BME280;21561;55.654;37.592;2022-10-31T03:14:48;97645.16;;;-1.93;100.00
35443;BME280;21561;55.654;37.592;2022-10-31T03:17:22;97639.25;;;-1.89;100.00
35443;BME280;21561;55.654;37.592;2022-10-31T03:19:49;97647.75;;;-1.90;100.00
35443;BME280;21561;55.654;37.592;2022-10-31T03:22:20;97652.81;;;-1.88;100.00
35443;BME280;21561;55.654;37.592;2022-10-31T03:24:47;97647.75;;;-1.87;100.00
35443;BME280;21561;55.654;37.592;2022-10-31T03:27:18;97659.63;;;-1.86;100.00
35443;BME280;21561;55.654;37.592;2022-10-31T03:29:47;97635.91;;;-1.83;100.00
35443;BME280;21561;55.654;37.592;2022-10-31T03:32:16;97640.19;;;-1.81;100.00
35443;BME280;21561;55.654;37.592;2022-10-31T03:34:45;97665.63;;;-1.78;100.00
35443;BME280;21561;55.654;37.592;2022-10-31T03:37:13;97685.06;;;-1.86;100.00
35443;BME280;21561;55.654;37.592;2022-10-31T03:39:41;97653.78;;;-1.79;100.00
35443;BME280;21561;55.654;37.592;2022-10-31T03:42:14;97655.53;;;-1.71;100.00
35443;BME280;21561;55.654;37.592;2022-10-31T03:44:43;97669.94;;;-1.74;100.00
35443;BME280;21561;55.654;37.592;2022-10-31T03:47:12;97653.81;;;-1.76;100.00
35443;BME280;21561;55.654;37.592;2022-10-31T03:49:39;97649.53;;;-1.78;100.00
35443;BME280;21561;55.654;37.592;2022-10-31T03:52:14;97641.88;;;-1.80;100.00
35443;BME280;21561;55.654;37.592;2022-10-31T03:54:45;97674.13;;;-1.79;100.00
35443;BME280;21561;55.654;37.592;2022-10-31T03:59:40;97647.84;;;-1.78;100.00
35443;BME280;21561;55.654;37.592;2022-10-31T04:02:11;97669.06;;;-1.76;100.00
35443;BME280;21561;55.654;37.592;2022-10-31T04:04:39;97667.41;;;-1.74;100.00
35443;BME280;21561;55.654;37.592;2022-10-31T04:07:06;97669.03;;;-1.79;100.00
35443;BME280;21561;55.654;37.592;2022-10-31T04:09:35;97674.91;;;-1.84;100.00
35443;BME280;21561;55.654;37.592;2022-10-31T04:12:03;97681.78;;;-1.76;100.00
35443;BME280;21561;55.654;37.592;2022-10-31T04:14:31;97658.91;;;-1.73;100.00
35443;BME280;21561;55.654;37.592;2022-10-31T04:16:59;97677.50;;;-1.80;100.00
35443;BME280;21561;55.654;37.592;2022-10-31T04:19:27;97679.25;;;-1.76;100.00
35443;BME280;21561;55.654;37.592;2022-10-31T04:21:53;97665.63;;;-1.78;100.00
35443;BME280;21561;55.654;37.592;2022-10-31T04:24:20;97686.91;;;-1.74;100.00
35443;BME280;21561;55.654;37.592;2022-10-31T04:26:47;97669.06;;;-1.76;100.00
35443;BME280;21561;55.654;37.592;2022-10-31T04:29:13;97673.28;;;-1.79;100.00
35443;BME280;21561;55.654;37.592;2022-10-31T04:31:40;97698.69;;;-1.79;100.00
35443;BME280;21561;55.654;37.592;2022-10-31T04:34:06;97669.00;;;-1.82;100.00
35443;BME280;21561;55.654;37.592;2022-10-31T04:36:33;97691.03;;;-1.82;100.00
35443;BME280;21561;55.654;37.592;2022-10-31T04:39:00;97714.72;;;-1.85;100.00
35443;BME280;21561;55.654;37.592;2022-10-31T04:41:26;97692.75;;;-1.80;100.00
35443;BME280;21561;55.654;37.592;2022-10-31T04:43:53;97684.31;;;-1.77;100.00
35443;BME280;21561;55.654;37.592;2022-10-31T04:46:20;97679.25;;;-1.76;100.00
35443;BME280;21561;55.654;37.592;2022-10-31T04:48:46;97691.09;;;-1.75;100.00
35443;BME280;21561;55.654;37.592;2022-10-31T04:51:13;97692.81;;;-1.74;100.00
35443;BME280;21561;55.654;37.592;2022-10-31T04:53:39;97704.69;;;-1.76;100.00
35443;BME280;21561;55.654;37.592;2022-10-31T04:56:06;97725.03;;;-1.76;100.00
35443;BME280;21561;55.654;37.592;2022-10-31T04:58:33;97704.69;;;-1.76;100.00
35443;BME280;21561;55.654;37.592;2022-10-31T05:00:59;97720.81;;;-1.72;100.00
35443;BME280;21561;55.654;37.592;2022-10-31T05:03:26;97724.22;;;-1.70;100.00
35443;BME280;21561;55.654;37.592;2022-10-31T05:05:53;97717.50;;;-1.65;100.00
35443;BME280;21561;55.654;37.592;2022-10-31T05:08:19;97715.84;;;-1.61;100.00
35443;BME280;21561;55.654;37.592;2022-10-31T05:10:46;97731.97;;;-1.59;100.00
35443;BME280;21561;55.654;37.592;2022-10-31T05:13:12;97719.22;;;-1.61;100.00
35443;BME280;21561;55.654;37.592;2022-10-31T05:15:41;97717.63;;;-1.54;100.00
35443;BME280;21561;55.654;37.592;2022-10-31T05:18:07;97724.47;;;-1.47;100.00
35443;BME280;21561;55.654;37.592;2022-10-31T05:20:34;97743.13;;;-1.45;100.00
35443;BME280;21561;55.654;37.592;2022-10-31T05:23:01;97736.28;;;-1.52;100.00
35443;BME280;21561;55.654;37.592;2022-10-31T05:25:28;97768.47;;;-1.56;100.00
35443;BME280;21561;55.654;37.592;2022-10-31T05:27:55;97737.13;;;-1.51;100.00
35443;BME280;21561;55.654;37.592;2022-10-31T05:30:24;97733.75;;;-1.52;100.00
35443;BME280;21561;55.654;37.592;2022-10-31T05:32:52;97772.72;;;-1.53;100.00
35443;BME280;21561;55.654;37.592;2022-10-31T05:35:20;97740.53;;;-1.52;100.00
35443;BME280;21561;55.654;37.592;2022-10-31T05:37:47;97759.31;;;-1.40;100.00
35443;BME280;21561;55.654;37.592;2022-10-31T05:40:15;97755.97;;;-1.34;100.00
35443;BME280;21561;55.654;37.592;2022-10-31T05:42:42;97772.06;;;-1.35;100.00
35443;BME280;21561;55.654;37.592;2022-10-31T05:45:10;97781.38;;;-1.36;100.00
35443;BME280;21561;55.654;37.592;2022-10-31T05:47:37;97773.84;;;-1.26;100.00
35443;BME280;21561;55.654;37.592;2022-10-31T05:50:04;97776.38;;;-1.26;100.00
35443;BME280;21561;55.654;37.592;2022-10-31T05:52:30;97781.53;;;-1.22;100.00
35443;BME280;21561;55.654;37.592;2022-10-31T05:54:57;97781.63;;;-1.11;100.00
35443;BME280;21561;55.654;37.592;2022-10-31T05:57:24;97792.63;;;-1.17;100.00
35443;BME280;21561;55.654;37.592;2022-10-31T05:59:51;97810.44;;;-1.15;100.00
35443;BME280;21561;55.654;37.592;2022-10-31T06:02:20;97812.09;;;-1.17;100.00
35443;BME280;21561;55.654;37.592;2022-10-31T06:04:47;97808.78;;;-1.13;100.00
35443;BME280;21561;55.654;37.592;2022-10-31T06:07:14;97823.16;;;-1.15;100.00
35443;BME280;21561;55.654;37.592;2022-10-31T06:09:40;97798.63;;;-1.07;100.00
35443;BME280;21561;55.654;37.592;2022-10-31T06:12:07;97810.63;;;-0.93;100.00
35443;BME280;21561;55.654;37.592;2022-10-31T06:14:34;97833.56;;;-0.92;100.00
35443;BME280;21561;55.654;37.592;2022-10-31T06:17:00;97844.53;;;-0.99;100.00
35443;BME280;21561;55.654;37.592;2022-10-31T06:19:27;97831.03;;;-0.90;100.00
35443;BME280;21561;55.654;37.592;2022-10-31T06:21:53;97852.19;;;-0.96;100.00
35443;BME280;21561;55.654;37.592;2022-10-31T06:24:20;97844.53;;;-0.98;100.00
35443;BME280;21561;55.654;37.592;2022-10-31T06:26:46;97843.81;;;-0.87;100.00
35443;BME280;21561;55.654;37.592;2022-10-31T06:29:13;97855.75;;;-0.82;100.00
35443;BME280;21561;55.654;37.592;2022-10-31T06:31:40;97847.25;;;-0.82;100.00
35443;BME280;21561;55.654;37.592;2022-10-31T06:34:06;97867.75;;;-0.70;100.00
35443;BME280;21561;55.654;37.592;2022-10-31T06:36:33;97864.31;;;-0.72;100.00
35443;BME280;21561;55.654;37.592;2022-10-31T06:38:59;97879.59;;;-0.75;100.00
35443;BME280;21561;55.654;37.592;2022-10-31T06:41:26;97885.59;;;-0.67;100.00
35443;BME280;21561;55.654;37.592;2022-10-31T06:43:53;97894.88;;;-0.70;100.00
35443;BME280;21561;55.654;37.592;2022-10-31T06:46:19;97899.19;;;-0.65;100.00
35443;BME280;21561;55.654;37.592;2022-10-31T06:48:46;97901.75;;;-0.63;100.00
35443;BME280;21561;55.654;37.592;2022-10-31T06:51:13;97895.88;;;-0.54;100.00
35443;BME280;21561;55.654;37.592;2022-10-31T06:53:39;97909.56;;;-0.46;100.00
35443;BME280;21561;55.654;37.592;2022-10-31T06:56:06;97909.59;;;-0.40;100.00
35443;BME280;21561;55.654;37.592;2022-10-31T06:58:32;97918.19;;;-0.30;100.00
35443;BME280;21561;55.654;37.592;2022-10-31T07:00:59;97913.09;;;-0.32;100.00
35443;BME280;21561;55.654;37.592;2022-10-31T07:03:27;97925.84;;;-0.30;100.00
35443;BME280;21561;55.654;37.592;2022-10-31T07:05:56;97926.72;;;-0.25;100.00
35443;BME280;21561;55.654;37.592;2022-10-31T07:08:23;97926.72;;;-0.24;100.00
35443;BME280;21561;55.654;37.592;2022-10-31T07:10:51;97926.78;;;-0.17;100.00
35443;BME280;21561;55.654;37.592;2022-10-31T07:13:18;97936.25;;;-0.04;100.00
35443;BME280;21561;55.654;37.592;2022-10-31T07:15:47;97929.53;;;0.06;100.00
35443;BME280;21561;55.654;37.592;2022-10-31T07:18:14;97955.84;;;0.03;100.00
35443;BME280;21561;55.654;37.592;2022-10-31T07:20:41;97967.72;;;0.01;100.00
35443;BME280;21561;55.654;37.592;2022-10-31T07:23:08;97983.03;;;0.01;100.00
35443;BME280;21561;55.654;37.592;2022-10-31T07:25:36;97982.25;;;0.10;100.00
35443;BME280;21561;55.654;37.592;2022-10-31T07:28:02;97983.94;;;0.06;100.00
35443;BME280;21561;55.654;37.592;2022-10-31T07:30:29;97989.94;;;0.11;100.00
35443;BME280;21561;55.654;37.592;2022-10-31T07:32:56;97990.81;;;0.16;100.00
35443;BME280;21561;55.654;37.592;2022-10-31T07:35:24;98004.44;;;0.23;100.00
35443;BME280;21561;55.654;37.592;2022-10-31T07:37:51;98001.91;;;0.25;99.81
35443;BME280;21561;55.654;37.592;2022-10-31T07:40:18;98011.28;;;0.26;99.60
35443;BME280;21561;55.654;37.592;2022-10-31T07:42:46;98018.97;;;0.32;99.79
35443;BME280;21561;55.654;37.592;2022-10-31T07:45:14;98032.53;;;0.22;100.00
35443;BME280;21561;55.654;37.592;2022-10-31T07:47:47;98030.88;;;0.30;100.00
35443;BME280;21561;55.654;37.592;2022-10-31T07:50:18;98053.03;;;0.37;99.88
35443;BME280;21561;55.654;37.592;2022-10-31T07:52:45;98063.31;;;0.46;99.74
35443;BME280;21561;55.654;37.592;2022-10-31T07:55:12;98070.13;;;0.44;99.49
35443;BME280;21561;55.654;37.592;2022-10-31T07:57:41;98072.66;;;0.44;99.84
35443;BME280;21561;55.654;37.592;2022-10-31T08:00:08;98054.88;;;0.50;99.84
35443;BME280;21561;55.654;37.592;2022-10-31T08:02:36;98091.41;;;0.43;99.48
35443;BME280;21561;55.654;37.592;2022-10-31T08:05:02;98094.75;;;0.41;100.00
35443;BME280;21561;55.654;37.592;2022-10-31T08:07:29;98087.09;;;0.36;100.00
35443;BME280;21561;55.654;37.592;2022-10-31T08:09:56;98092.19;;;0.36;100.00
35443;BME280;21561;55.654;37.592;2022-10-31T08:12:22;98093.06;;;0.43;100.00
35443;BME280;21561;55.654;37.592;2022-10-31T08:14:49;98104.97;;;0.42;100.00
35443;BME280;21561;55.654;37.592;2022-10-31T08:17:16;98097.38;;;0.45;100.00
35443;BME280;21561;55.654;37.592;2022-10-31T08:19:43;98104.19;;;0.49;100.00
35443;BME280;21561;55.654;37.592;2022-10-31T08:22:09;98107.59;;;0.51;100.00
35443;BME280;21561;55.654;37.592;2022-10-31T08:24:36;98115.34;;;0.61;99.73
35443;BME280;21561;55.654;37.592;2022-10-31T08:27:05;98123.03;;;0.64;97.92
35443;BME280;21561;55.654;37.592;2022-10-31T08:29:32;98118.84;;;0.73;97.59
35443;BME280;21561;55.654;37.592;2022-10-31T08:31:58;98122.34;;;0.85;97.42
35443;BME280;21561;55.654;37.592;2022-10-31T08:34:25;98131.78;;;0.93;96.29
35443;BME280;21561;55.654;37.592;2022-10-31T08:36:51;98131.81;;;1.00;95.31
35443;BME280;21561;55.654;37.592;2022-10-31T08:39:18;98130.91;;;0.90;94.87
35443;BME280;21561;55.654;37.592;2022-10-31T08:41:45;98133.53;;;1.04;94.64
35443;BME280;21561;55.654;37.592;2022-10-31T08:44:11;98141.22;;;1.08;93.19
35443;BME280;21561;55.654;37.592;2022-10-31T08:46:38;98152.25;;;1.00;91.90
35443;BME280;21561;55.654;37.592;2022-10-31T08:49:05;98162.53;;;1.12;92.19
35443;BME280;21561;55.654;37.592;2022-10-31T08:51:31;98168.50;;;1.12;92.38
35443;BME280;21561;55.654;37.592;2022-10-31T08:53:58;98175.34;;;1.17;91.58
35443;BME280;21561;55.654;37.592;2022-10-31T08:56:25;98180.44;;;1.17;92.02
35443;BME280;21561;55.654;37.592;2022-10-31T08:58:52;98180.47;;;1.15;91.66
35443;BME280;21561;55.654;37.592;2022-10-31T09:01:19;98177.84;;;1.09;89.40
35443;BME280;21561;55.654;37.592;2022-10-31T09:03:46;98174.47;;;1.10;90.62
35443;BME280;21561;55.654;37.592;2022-10-31T09:06:12;98194.88;;;1.07;88.53
35443;BME280;21561;55.654;37.592;2022-10-31T09:08:39;98194.91;;;1.11;85.29
35443;BME280;21561;55.654;37.592;2022-10-31T09:11:06;98182.13;;;1.14;86.61
35443;BME280;21561;55.654;37.592;2022-10-31T09:13:33;98205.16;;;1.16;85.33
35443;BME280;21561;55.654;37.592;2022-10-31T09:16:06;98203.50;;;1.23;83.19
35443;BME280;21561;55.654;37.592;2022-10-31T09:18:33;98198.41;;;1.27;82.46
35443;BME280;21561;55.654;37.592;2022-10-31T09:21:00;98191.63;;;1.32;83.30
35443;BME280;21561;55.654;37.592;2022-10-31T09:23:27;98196.78;;;1.37;83.53
35443;BME280;21561;55.654;37.592;2022-10-31T09:25:54;98199.34;;;1.42;82.68
35443;BME280;21561;55.654;37.592;2022-10-31T09:28:21;98200.22;;;1.47;83.03
35443;BME280;21561;55.654;37.592;2022-10-31T09:30:49;98206.22;;;1.50;82.92
35443;BME280;21561;55.654;37.592;2022-10-31T09:33:16;98208.84;;;1.61;83.44
35443;BME280;21561;55.654;37.592;2022-10-31T09:35:43;98213.97;;;1.58;84.14
35443;BME280;21561;55.654;37.592;2022-10-31T09:38:11;98219.97;;;1.68;84.63
35443;BME280;21561;55.654;37.592;2022-10-31T09:48:10;98236.06;;;1.50;85.56
35443;BME280;21561;55.654;37.592;2022-10-31T09:53:12;98259.91;;;1.50;83.73
35443;BME280;21561;55.654;37.592;2022-10-31T09:55:44;98253.91;;;1.45;83.42
35443;BME280;21561;55.654;37.592;2022-10-31T09:58:31;98280.34;;;1.46;82.95
35443;BME280;21561;55.654;37.592;2022-10-31T10:01:04;98280.34;;;1.46;83.73
35443;BME280;21561;55.654;37.592;2022-10-31T10:03:39;98247.13;;;1.50;84.15
35443;BME280;21561;55.654;37.592;2022-10-31T10:08:37;98285.56;;;1.64;84.08
35443;BME280;21561;55.654;37.592;2022-10-31T10:26:33;98310.47;;;1.91;85.79
35443;BME280;21561;55.654;37.592;2022-10-31T10:29:02;98318.19;;;1.96;84.79
35443;BME280;21561;55.654;37.592;2022-10-31T10:31:37;98324.13;;;1.95;84.69
35443;BME280;21561;55.654;37.592;2022-10-31T10:36:34;98341.09;;;1.81;86.54
35443;BME280;21561;55.654;37.592;2022-10-31T10:39:17;98344.50;;;1.80;87.59
35443;BME280;21561;55.654;37.592;2022-10-31T10:41:49;98347.06;;;1.80;88.37
35443;BME280;21561;55.654;37.592;2022-10-31T10:44:38;98348.78;;;1.81;88.17
35443;BME280;21561;55.654;37.592;2022-10-31T10:47:25;98349.72;;;1.95;87.56
35443;BME280;21561;55.654;37.592;2022-10-31T10:57:54;98358.19;;;1.83;88.46
35443;BME280;21561;55.654;37.592;2022-10-31T11:00:32;98367.44;;;1.70;90.00
35443;BME280;21561;55.654;37.592;2022-10-31T11:03:00;98357.22;;;1.67;90.23
35443;BME280;21561;55.654;37.592;2022-10-31T11:07:54;98356.31;;;1.67;90.80
35443;BME280;21561;55.654;37.592;2022-10-31T11:10:21;98358.09;;;1.71;89.94
35443;BME280;21561;55.654;37.592;2022-10-31T11:15:55;98365.72;;;1.68;89.57
35443;BME280;21561;55.654;37.592;2022-10-31T11:18:23;98354.50;;;1.52;88.81
35443;BME280;21561;55.654;37.592;2022-10-31T11:20:57;98346.03;;;1.58;89.18
35443;BME280;21561;55.654;37.592;2022-10-31T11:23:25;98363.13;;;1.60;89.31
35443;BME280;21561;55.654;37.592;2022-10-31T11:25:59;98363.03;;;1.51;88.88
35443;BME280;21561;55.654;37.592;2022-10-31T11:28:27;98365.69;;;1.60;88.99
35443;BME280;21561;55.654;37.592;2022-10-31T11:30:56;98376.78;;;1.67;89.18
35443;BME280;21561;55.654;37.592;2022-10-31T11:33:26;98378.56;;;1.76;88.90
35443;BME280;21561;55.654;37.592;2022-10-31T11:35:53;98370.09;;;1.80;87.03
35443;BME280;21561;55.654;37.592;2022-10-31T11:38:24;98372.59;;;1.74;86.73
35443;BME280;21561;55.654;37.592;2022-10-31T11:40:59;98381.06;;;1.66;86.49
35443;BME280;21561;55.654;37.592;2022-10-31T11:43:30;98390.41;;;1.64;86.40
35443;BME280;21561;55.654;37.592;2022-10-31T11:45:56;98371.66;;;1.62;86.37
35443;BME280;21561;55.654;37.592;2022-10-31T11:48:23;98393.81;;;1.63;87.15
35443;BME280;21561;55.654;37.592;2022-10-31T11:50:56;98387.00;;;1.62;86.59
35443;BME280;21561;55.654;37.592;2022-10-31T11:53:29;98413.47;;;1.67;85.65
35443;BME280;21561;55.654;37.592;2022-10-31T11:56:10;98384.50;;;1.71;85.93
35443;BME280;21561;55.654;37.592;2022-10-31T11:58:39;98405.78;;;1.66;85.15
35443;BME280;21561;55.654;37.592;2022-10-31T12:01:08;98381.13;;;1.73;85.81
35443;BME280;21561;55.654;37.592;2022-10-31T12:06:20;98406.59;;;1.63;86.15
35443;BME280;21561;55.654;37.592;2022-10-31T12:08:48;98396.41;;;1.66;86.08
35443;BME280;21561;55.654;37.592;2022-10-31T12:14:13;98403.94;;;1.52;87.03
35443;BME280;21561;55.654;37.592;2022-10-31T12:16:49;98398.06;;;1.58;87.17
35443;BME280;21561;55.654;37.592;2022-10-31T12:22:04;98410.78;;;1.53;88.28
35443;BME280;21561;55.654;37.592;2022-10-31T12:27:25;98442.38;;;1.59;88.46
35443;BME280;21561;55.654;37.592;2022-10-31T12:30:17;98427.84;;;1.56;88.92
35443;BME280;21561;55.654;37.592;2022-10-31T12:37:51;98437.94;;;1.42;90.54
35443;BME280;21561;55.654;37.592;2022-10-31T12:43:20;98426.91;;;1.48;90.60
35443;BME280;21561;55.654;37.592;2022-10-31T12:58:31;98443.59;;;1.12;96.70
35443;BME280;21561;55.654;37.592;2022-10-31T13:04:03;98441.94;;;1.17;96.24
35443;BME280;21561;55.654;37.592;2022-10-31T13:06:36;98448.84;;;1.27;95.56
35443;BME280;21561;55.654;37.592;2022-10-31T13:09:18;98448.94;;;1.33;94.61
35443;BME280;21561;55.654;37.592;2022-10-31T13:12:01;98451.53;;;1.37;94.01
35443;BME280;21561;55.654;37.592;2022-10-31T13:16:55;98465.19;;;1.42;93.61
35443;BME280;21561;55.654;37.592;2022-10-31T13:19:39;98459.28;;;1.49;93.54
35443;BME280;21561;55.654;37.592;2022-10-31T13:22:17;98474.69;;;1.52;92.99
35443;BME280;21561;55.654;37.592;2022-10-31T13:24:58;98484.97;;;1.60;92.29
35443;BME280;21561;55.654;37.592;2022-10-31T13:27:26;98475.63;;;1.60;92.00
35443;BME280;21561;55.654;37.592;2022-10-31T13:30:04;98492.72;;;1.66;91.77
35443;BME280;21561;55.654;37.592;2022-10-31T13:35:35;98466.41;;;1.76;91.09
35443;BME280;21561;55.654;37.592;2022-10-31T13:38:13;98476.63;;;1.75;91.14
35443;BME280;21561;55.654;37.592;2022-10-31T13:40:55;98481.75;;;1.76;90.81
35443;BME280;21561;55.654;37.592;2022-10-31T13:45:51;98486.97;;;1.87;90.43
35443;BME280;21561;55.654;37.592;2022-10-31T13:48:20;98498.88;;;1.86;90.63
35443;BME280;21561;55.654;37.592;2022-10-31T13:51:00;98489.53;;;1.90;90.60
35443;BME280;21561;55.654;37.592;2022-10-31T13:53:45;98506.50;;;1.80;90.58
35443;BME280;21561;55.654;37.592;2022-10-31T13:56:16;98514.25;;;1.88;90.11
35443;BME280;21561;55.654;37.592;2022-10-31T14:01:22;98511.75;;;1.94;90.17
35443;BME280;21561;55.654;37.592;2022-10-31T14:04:24;98496.44;;;1.99;90.03
35443;BME280;21561;55.654;37.592;2022-10-31T14:09:33;98522.03;;;2.00;90.24
35443;BME280;21561;55.654;37.592;2022-10-31T14:12:05;98516.97;;;2.08;89.84
35443;BME280;21561;55.654;37.592;2022-10-31T14:14:35;98495.63;;;2.01;90.14
35443;BME280;21561;55.654;37.592;2022-10-31T14:17:12;98521.13;;;1.95;90.54
35443;BME280;21561;55.654;37.592;2022-10-31T14:19:42;98574.84;;;1.94;90.75
35443;BME280;21561;55.654;37.592;2022-10-31T14:22:21;98514.28;;;1.91;90.95
35443;BME280;21561;55.654;37.592;2022-10-31T14:24:48;98550.06;;;1.85;91.24
35443;BME280;21561;55.654;37.592;2022-10-31T14:29:50;98531.31;;;1.89;91.37
35443;BME280;21561;55.654;37.592;2022-10-31T14:40:24;98521.16;;;1.98;90.73
35443;BME280;21561;55.654;37.592;2022-10-31T14:53:18;98541.69;;;2.04;90.00
35443;BME280;21561;55.654;37.592;2022-10-31T14:55:48;98560.38;;;1.97;90.51
35443;BME280;21561;55.654;37.592;2022-10-31T14:58:17;98571.53;;;2.04;90.63
35443;BME280;21561;55.654;37.592;2022-10-31T15:00:45;98577.50;;;2.04;90.02
35443;BME280;21561;55.654;37.592;2022-10-31T15:03:16;98577.47;;;1.98;90.20
35443;BME280;21561;55.654;37.592;2022-10-31T15:05:49;98567.31;;;2.07;89.57
35443;BME280;21561;55.654;37.592;2022-10-31T15:08:38;98574.13;;;2.05;89.82
35443;BME280;21561;55.654;37.592;2022-10-31T15:11:12;98575.78;;;2.00;89.39
35443;BME280;21561;55.654;37.592;2022-10-31T15:13:43;98577.59;;;2.10;88.98
35443;BME280;21561;55.654;37.592;2022-10-31T15:16:11;98565.56;;;2.03;89.11
35443;BME280;21561;55.654;37.592;2022-10-31T15:18:49;98589.44;;;2.02;89.28